createdAt,value
2017-10-08T00:00:48.222Z,4.30
2017-10-08T00:03:15.752Z,3.80
2017-10-08T00:05:44.060Z,4.13
2017-10-08T00:08:11.632Z,3.90
2017-10-08T00:10:39.160Z,3.93
2017-10-08T00:13:07.460Z,4.23
2017-10-08T00:15:34.979Z,2.27
2017-10-08T00:18:02.537Z,3.00
2017-10-08T00:20:31.582Z,5.87
2017-10-08T00:22:59.105Z,5.67
2017-10-08T00:25:27.526Z,6.90
2017-10-08T00:27:55.051Z,3.67
2017-10-08T00:30:23.338Z,4.20
2017-10-08T00:32:50.866Z,5.50
2017-10-08T00:35:18.411Z,3.00
2017-10-08T00:37:45.941Z,5.80
2017-10-08T00:40:13.474Z,2.43
2017-10-08T00:42:41.770Z,2.00
2017-10-08T00:45:09.301Z,2.30
2017-10-08T00:47:37.596Z,6.43
2017-10-08T00:50:05.138Z,2.70
2017-10-08T00:52:33.433Z,2.80
2017-10-08T00:55:00.957Z,4.20
2017-10-08T00:57:28.490Z,2.90
2017-10-08T00:59:56.027Z,4.70
2017-10-08T01:02:23.562Z,2.30
2017-10-08T01:04:51.857Z,2.47
2017-10-08T01:07:19.385Z,3.40
2017-10-08T01:09:46.923Z,4.30
2017-10-08T01:12:14.459Z,4.23
2017-10-08T01:14:41.977Z,5.07
2017-10-08T01:17:10.264Z,2.90
2017-10-08T01:19:38.552Z,2.60
2017-10-08T01:22:06.092Z,2.43
2017-10-08T01:24:34.380Z,2.90
2017-10-08T01:27:02.681Z,7.77
2017-10-08T01:29:30.209Z,4.40
2017-10-08T01:31:58.505Z,6.60
2017-10-08T01:34:26.041Z,2.70
2017-10-08T01:36:54.328Z,3.20
2017-10-08T01:39:22.625Z,3.40
2017-10-08T01:41:50.160Z,3.10
2017-10-08T01:44:18.471Z,3.40
2017-10-08T01:46:46.007Z,3.43
2017-10-08T01:49:14.300Z,2.17
2017-10-08T01:51:41.843Z,4.17
2017-10-08T01:54:10.136Z,3.60
2017-10-08T01:56:37.666Z,2.27
2017-10-08T01:59:05.965Z,5.97
2017-10-08T02:01:34.268Z,3.97
2017-10-08T02:04:01.788Z,3.07
2017-10-08T02:06:30.084Z,5.27
2017-10-08T02:08:57.608Z,2.83
2017-10-08T02:11:25.139Z,3.83
2017-10-08T02:13:52.673Z,3.73
2017-10-08T02:16:20.202Z,2.53
2017-10-08T02:18:48.511Z,3.30
2017-10-08T02:21:16.056Z,5.27
2017-10-08T02:23:44.350Z,3.90
2017-10-08T02:26:11.899Z,3.50
2017-10-08T02:28:39.430Z,2.23
2017-10-08T02:31:06.949Z,3.20
2017-10-08T02:33:34.477Z,3.93
2017-10-08T02:36:02.005Z,3.30
2017-10-08T02:38:30.308Z,3.10
2017-10-08T02:40:58.605Z,5.03
2017-10-08T02:43:26.141Z,2.67
2017-10-08T02:45:54.440Z,3.80
2017-10-08T02:48:21.980Z,3.53
2017-10-08T02:50:49.533Z,2.80
2017-10-08T02:53:17.824Z,2.40
2017-10-08T02:55:46.118Z,2.87
2017-10-08T02:58:13.648Z,2.70
2017-10-08T03:00:41.950Z,2.03
2017-10-08T03:03:09.482Z,4.00
2017-10-08T03:05:37.011Z,2.87
2017-10-08T03:08:04.537Z,2.53
2017-10-08T03:10:32.064Z,3.70
2017-10-08T03:13:00.361Z,8.20
2017-10-08T03:15:28.653Z,2.20
2017-10-08T03:17:56.182Z,3.17
2017-10-08T03:20:24.474Z,3.57
2017-10-08T03:22:52.769Z,2.90
2017-10-08T03:25:20.310Z,3.73
2017-10-08T03:27:48.613Z,4.50
2017-10-08T03:30:16.148Z,5.97
2017-10-08T03:32:44.445Z,7.97
2017-10-08T03:35:12.045Z,5.53
2017-10-08T03:37:39.573Z,4.77
2017-10-08T03:40:07.107Z,4.03
2017-10-08T03:42:35.400Z,4.13
2017-10-08T03:45:02.934Z,3.20
2017-10-08T03:47:31.233Z,5.00
2017-10-08T03:49:58.757Z,4.30
2017-10-08T03:52:26.290Z,4.20
2017-10-08T03:54:53.832Z,9.33
2017-10-08T03:57:21.365Z,6.80
2017-10-08T03:59:49.656Z,2.00
2017-10-08T04:02:17.209Z,2.63
2017-10-08T04:04:45.507Z,8.43
2017-10-08T04:07:13.037Z,6.47
2017-10-08T04:09:41.329Z,2.87
2017-10-08T04:12:08.869Z,2.93
2017-10-08T04:14:37.172Z,3.90
2017-10-08T04:17:04.707Z,5.83
2017-10-08T04:19:33.001Z,2.50
2017-10-08T04:22:01.294Z,15.40
2017-10-08T04:24:28.835Z,3.47
2017-10-08T04:26:57.126Z,6.53
2017-10-08T04:29:24.679Z,3.10
2017-10-08T04:31:52.222Z,3.70
2017-10-08T04:34:20.512Z,3.00
2017-10-08T04:36:48.801Z,5.30
2017-10-08T04:39:16.346Z,3.27
2017-10-08T04:41:44.639Z,1.90
2017-10-08T04:44:12.177Z,4.30
2017-10-08T04:46:40.472Z,3.57
2017-10-08T04:49:08.004Z,2.70
2017-10-08T04:51:35.538Z,5.20
2017-10-08T04:54:03.069Z,4.40
2017-10-08T04:56:30.606Z,2.73
2017-10-08T04:58:58.898Z,2.83
2017-10-08T05:01:26.416Z,3.00
2017-10-08T05:03:53.942Z,3.30
2017-10-08T05:06:21.468Z,5.70
2017-10-08T05:08:49.004Z,3.40
2017-10-08T05:11:17.305Z,5.90
2017-10-08T05:13:44.838Z,6.47
2017-10-08T05:16:13.140Z,3.10
2017-10-08T05:18:41.425Z,1.83
2017-10-08T05:21:08.950Z,3.20
2017-10-08T05:23:36.477Z,3.37
2017-10-08T05:26:04.015Z,4.90
2017-10-08T05:28:31.532Z,3.37
2017-10-08T05:30:59.062Z,3.87
2017-10-08T05:33:26.599Z,8.73
2017-10-08T05:35:54.137Z,4.40
2017-10-08T05:38:22.442Z,3.63
2017-10-08T05:40:49.970Z,2.90
2017-10-08T05:43:18.260Z,4.37
2017-10-08T05:45:45.788Z,2.63
2017-10-08T05:48:13.322Z,2.40
2017-10-08T05:50:40.855Z,2.70
2017-10-08T05:53:08.379Z,2.40
2017-10-08T05:55:36.677Z,5.10
2017-10-08T05:58:04.201Z,2.80
2017-10-08T06:00:31.730Z,3.47
2017-10-08T06:02:59.260Z,4.10
2017-10-08T06:05:26.802Z,3.73
2017-10-08T06:07:55.110Z,3.20
2017-10-08T06:10:22.654Z,3.43
2017-10-08T06:12:50.197Z,4.90
2017-10-08T06:15:18.489Z,5.33
2017-10-08T06:17:46.013Z,2.90
2017-10-08T06:20:13.545Z,5.83
2017-10-08T06:22:41.074Z,5.80
2017-10-08T06:25:08.609Z,3.60
2017-10-08T06:27:36.896Z,7.53
2017-10-08T06:30:05.196Z,4.63
2017-10-08T06:32:32.729Z,3.30
2017-10-08T06:35:01.025Z,3.13
2017-10-08T06:37:28.560Z,3.43
2017-10-08T06:39:56.860Z,2.63
2017-10-08T06:42:25.167Z,4.63
2017-10-08T06:44:52.697Z,2.73
2017-10-08T06:47:20.989Z,3.80
2017-10-08T06:49:48.522Z,7.93
2017-10-08T06:52:16.821Z,3.67
2017-10-08T06:54:44.353Z,2.90
2017-10-08T06:57:12.639Z,6.03
2017-10-08T06:59:40.944Z,4.73
2017-10-08T07:02:08.473Z,4.23
2017-10-08T07:04:36.770Z,2.43
2017-10-08T07:07:04.294Z,3.60
2017-10-08T07:09:33.328Z,4.10
2017-10-08T07:12:00.867Z,4.03
2017-10-08T07:14:29.169Z,8.03
2017-10-08T07:16:56.696Z,5.97
2017-10-08T07:19:24.225Z,4.27
2017-10-08T07:21:51.740Z,4.00
2017-10-08T07:24:19.273Z,23.53
2017-10-08T07:26:46.792Z,3.00
2017-10-08T07:29:14.333Z,4.07
2017-10-08T07:31:41.866Z,6.37
2017-10-08T07:34:10.174Z,3.33
2017-10-08T07:36:37.709Z,3.07
2017-10-08T07:39:05.996Z,4.80
2017-10-08T07:41:34.280Z,2.07
2017-10-08T07:44:01.832Z,2.40
2017-10-08T07:46:30.118Z,5.00
2017-10-08T07:48:57.645Z,13.37
2017-10-08T07:51:25.177Z,6.50
2017-10-08T07:53:52.705Z,3.73
2017-10-08T07:56:20.242Z,5.00
2017-10-08T07:58:48.535Z,4.63
2017-10-08T08:01:16.065Z,9.10
2017-10-08T08:03:44.392Z,2.80
2017-10-08T08:06:11.927Z,3.73
2017-10-08T08:08:39.453Z,3.33
2017-10-08T08:11:06.993Z,3.33
2017-10-08T08:13:34.521Z,4.90
2017-10-08T08:16:02.049Z,3.80
2017-10-08T08:18:30.346Z,3.20
2017-10-08T08:20:57.867Z,2.70
2017-10-08T08:23:25.395Z,2.17
2017-10-08T08:25:52.934Z,4.00
2017-10-08T08:28:20.461Z,3.17
2017-10-08T08:30:48.760Z,2.17
2017-10-08T08:33:17.053Z,4.30
2017-10-08T08:35:44.594Z,4.10
2017-10-08T08:38:12.886Z,6.90
2017-10-08T08:40:40.414Z,2.60
2017-10-08T08:43:08.713Z,3.20
2017-10-08T08:45:37.008Z,7.40
2017-10-08T08:48:04.542Z,3.53
2017-10-08T08:50:32.860Z,7.07
2017-10-08T08:53:00.389Z,3.43
2017-10-08T08:55:27.917Z,9.30
2017-10-08T08:57:55.648Z,3.57
2017-10-08T09:00:23.189Z,3.70
2017-10-08T09:02:50.718Z,3.47
2017-10-08T09:05:19.010Z,5.07
2017-10-08T09:07:46.536Z,4.53
2017-10-08T09:10:14.075Z,2.20
2017-10-08T09:12:41.596Z,6.03
2017-10-08T09:15:09.129Z,22.50
2017-10-08T09:17:36.666Z,16.23
2017-10-08T09:20:04.225Z,17.87
2017-10-08T09:22:31.762Z,11.03
2017-10-08T09:24:59.289Z,6.60
2017-10-08T09:27:27.595Z,10.40
2017-10-08T09:29:55.121Z,8.33
2017-10-08T09:32:23.414Z,6.40
2017-10-08T09:34:50.954Z,7.30
2017-10-08T09:37:19.263Z,10.53
2017-10-08T09:39:46.794Z,13.23
2017-10-08T09:42:15.103Z,7.67
2017-10-08T09:44:42.637Z,12.83
2017-10-08T09:47:10.938Z,90.83
2017-10-08T09:49:38.473Z,229.17
2017-10-08T09:52:06.769Z,7.37
2017-10-08T09:54:34.316Z,2.67
2017-10-08T09:57:02.622Z,6.90
2017-10-08T09:59:30.174Z,345.40
2017-10-08T10:01:58.263Z,6.83
2017-10-08T10:04:26.292Z,33.27
2017-10-08T10:06:55.420Z,13.43
2017-10-08T10:09:23.955Z,7.43
2017-10-08T10:11:51.562Z,730.40
2017-10-08T10:14:19.480Z,44.03
2017-10-08T10:16:47.951Z,20.33
2017-10-08T10:19:16.614Z,73.90
2017-10-08T10:21:45.394Z,8.80
2017-10-08T10:24:13.030Z,29.77
2017-10-08T10:26:41.413Z,88.17
2017-10-08T10:32:03.852Z,150.87
2017-10-08T10:34:31.565Z,68.67
2017-10-08T10:36:59.276Z,131.77
2017-10-08T10:39:27.120Z,24.83
2017-10-08T10:41:55.800Z,157.90
2017-10-08T10:44:24.976Z,107.20
2017-10-08T10:46:52.529Z,658.10
2017-10-08T10:49:20.243Z,523.10
2017-10-08T10:51:49.955Z,70.50
2017-10-08T10:54:18.617Z,348.33
2017-10-08T10:56:46.231Z,477.87
2017-10-08T10:59:14.883Z,164.53
2017-10-08T11:01:42.631Z,43.67
2017-10-08T11:04:10.195Z,7.00
2017-10-08T11:06:37.739Z,51.70
2017-10-08T11:11:49.072Z,410.13
2017-10-08T11:14:17.317Z,337.53
2017-10-08T11:16:45.701Z,258.00
2017-10-08T11:19:13.241Z,153.20
2017-10-08T11:21:41.046Z,253.43
2017-10-08T11:24:08.583Z,635.00
2017-10-08T11:26:36.124Z,222.67
2017-10-08T11:29:03.807Z,87.07
2017-10-08T11:31:31.379Z,567.40
2017-10-08T11:33:58.934Z,195.50
2017-10-08T11:36:26.698Z,142.27
2017-10-08T11:38:54.250Z,231.40
2017-10-08T11:41:21.922Z,302.80
2017-10-08T11:43:49.607Z,276.10
2017-10-08T11:46:17.161Z,502.90
2017-10-08T11:48:44.789Z,23.83
2017-10-08T11:51:12.345Z,337.30
2017-10-08T11:53:39.900Z,65.47
2017-10-08T11:56:08.217Z,30.77
2017-10-08T11:58:35.758Z,15.03
2017-10-08T12:01:03.308Z,36.33
2017-10-08T12:03:31.036Z,237.57
2017-10-08T12:05:58.611Z,353.47
2017-10-08T12:08:27.197Z,408.17
2017-10-08T12:10:55.527Z,461.87
2017-10-08T12:13:23.098Z,553.53
2017-10-08T12:15:50.680Z,505.03
2017-10-08T12:18:18.303Z,167.83
2017-10-08T12:20:47.414Z,497.37
2017-10-08T12:23:15.280Z,406.97
2017-10-08T12:25:42.847Z,313.93
2017-10-08T12:28:10.412Z,274.93
2017-10-08T12:30:37.986Z,878.60
2017-10-08T12:33:06.660Z,37.53
2017-10-08T12:35:35.636Z,346.40
2017-10-08T12:38:03.469Z,498.67
2017-10-08T12:40:32.596Z,367.90
2017-10-08T12:43:01.065Z,674.80
2017-10-08T12:45:29.560Z,719.03
2017-10-08T12:47:58.523Z,220.63
2017-10-08T12:50:27.947Z,770.10
2017-10-08T12:52:55.981Z,883.83
2017-10-08T12:55:25.132Z,644.37
2017-10-08T12:57:53.405Z,304.00
2017-10-08T13:00:21.145Z,314.13
2017-10-08T13:02:50.470Z,19.33
2017-10-08T13:05:18.326Z,440.00
2017-10-08T13:07:46.335Z,654.30
2017-10-08T13:10:14.815Z,295.40
2017-10-08T13:12:42.496Z,382.27
2017-10-08T13:15:10.046Z,810.60
2017-10-08T13:17:37.592Z,217.93
2017-10-08T13:20:05.471Z,563.03
2017-10-08T13:22:33.887Z,699.40
2017-10-08T13:25:02.485Z,825.00
2017-10-08T13:27:30.536Z,870.70
2017-10-08T13:29:59.168Z,747.23
2017-10-08T13:32:26.968Z,924.07
2017-10-08T13:34:54.774Z,478.27
2017-10-08T13:37:23.473Z,727.50
2017-10-08T13:39:51.149Z,1013.53
2017-10-08T13:42:19.539Z,608.73
2017-10-08T13:44:47.081Z,457.23
2017-10-08T13:47:15.411Z,374.87
2017-10-08T13:49:43.951Z,607.80
2017-10-08T13:52:12.305Z,106.83
2017-10-08T13:54:40.916Z,785.00
2017-10-08T13:57:09.661Z,169.60
2017-10-08T13:59:39.029Z,525.77
2017-10-08T14:02:07.174Z,485.27
2017-10-08T14:04:35.166Z,363.37
2017-10-08T14:07:03.270Z,417.97
2017-10-08T14:09:30.967Z,33.03
2017-10-08T14:11:58.860Z,617.63
2017-10-08T14:14:28.313Z,564.03
2017-10-08T14:16:56.633Z,1176.93
2017-10-08T14:19:24.169Z,848.87
2017-10-08T14:21:52.473Z,817.43
2017-10-08T14:24:20.021Z,676.03
2017-10-08T14:26:47.554Z,304.70
2017-10-08T14:29:15.861Z,852.57
2017-10-08T14:31:43.405Z,138.87
2017-10-08T14:34:11.834Z,242.07
2017-10-08T14:36:39.373Z,576.13
2017-10-08T14:39:06.910Z,432.40
2017-10-08T14:41:35.221Z,572.43
2017-10-08T14:44:02.763Z,482.43
2017-10-08T14:46:30.306Z,356.33
2017-10-08T14:48:58.831Z,213.37
2017-10-08T14:51:26.493Z,230.77
2017-10-08T14:53:54.072Z,105.23
2017-10-08T14:56:21.622Z,386.03
2017-10-08T14:58:49.578Z,216.47
2017-10-08T15:01:17.380Z,651.63
2017-10-08T15:03:45.279Z,442.43
2017-10-08T15:06:13.721Z,386.07
2017-10-08T15:08:42.230Z,149.07
2017-10-08T15:11:10.536Z,613.43
2017-10-08T15:13:38.083Z,479.43
2017-10-08T15:16:06.404Z,497.53
2017-10-08T15:18:34.228Z,481.70
2017-10-08T15:21:02.545Z,551.60
2017-10-08T15:23:30.086Z,476.77
2017-10-08T15:25:57.721Z,247.37
2017-10-08T15:28:26.041Z,210.23
2017-10-08T15:30:53.619Z,536.17
2017-10-08T15:33:21.169Z,447.20
2017-10-08T15:35:48.720Z,466.57
2017-10-08T15:38:16.267Z,500.20
2017-10-08T15:40:43.834Z,242.17
2017-10-08T15:43:11.377Z,329.57
2017-10-08T15:45:39.697Z,306.10
2017-10-08T15:48:07.262Z,257.93
2017-10-08T15:50:34.805Z,486.30
2017-10-08T15:53:02.352Z,443.30
2017-10-08T15:55:29.897Z,363.87
2017-10-08T15:57:57.448Z,103.67
2017-10-08T16:00:25.760Z,495.50
2017-10-08T16:02:53.311Z,258.47
2017-10-08T16:05:20.858Z,250.93
2017-10-08T16:07:48.400Z,192.97
2017-10-08T16:10:16.729Z,189.60
2017-10-08T16:12:44.326Z,285.70
2017-10-08T16:15:11.870Z,243.93
2017-10-08T16:17:39.409Z,193.77
2017-10-08T16:20:06.960Z,384.53
2017-10-08T16:22:34.511Z,331.00
2017-10-08T16:25:02.069Z,202.30
2017-10-08T16:27:29.614Z,458.70
2017-10-08T16:29:57.930Z,441.17
2017-10-08T16:32:25.478Z,340.73
2017-10-08T16:34:53.330Z,460.67
2017-10-08T16:37:21.678Z,411.13
2017-10-08T16:39:51.175Z,147.10
2017-10-08T16:42:19.519Z,539.13
2017-10-08T16:44:47.305Z,275.10
2017-10-08T16:47:15.576Z,135.13
2017-10-08T16:49:43.206Z,148.17
2017-10-08T16:52:11.658Z,133.47
2017-10-08T16:54:40.345Z,89.80
2017-10-08T16:57:09.304Z,344.03
2017-10-08T16:59:37.280Z,107.50
2017-10-08T17:02:05.839Z,49.00
2017-10-08T17:04:33.623Z,242.80
2017-10-08T17:07:02.537Z,35.57
2017-10-08T17:09:31.491Z,334.20
2017-10-08T17:11:59.667Z,120.97
2017-10-08T17:14:27.439Z,88.50
2017-10-08T17:16:55.638Z,51.73
2017-10-08T17:19:23.380Z,64.67
2017-10-08T17:21:51.964Z,72.77
2017-10-08T17:24:19.527Z,39.20
2017-10-08T17:26:47.651Z,189.97
2017-10-08T17:29:16.327Z,214.40
2017-10-08T17:31:44.629Z,35.30
2017-10-08T17:34:12.170Z,55.97
2017-10-08T17:36:40.471Z,95.43
2017-10-08T17:39:08.006Z,19.70
2017-10-08T17:41:36.305Z,19.10
2017-10-08T17:44:04.638Z,15.90
2017-10-08T17:46:32.169Z,15.73
2017-10-08T17:48:59.814Z,17.60
2017-10-08T17:51:27.350Z,9.00
2017-10-08T17:53:55.667Z,28.43
2017-10-08T17:56:23.207Z,11.33
2017-10-08T17:58:50.741Z,12.33
2017-10-08T18:01:19.042Z,10.43
2017-10-08T18:03:47.341Z,10.10
2017-10-08T18:06:14.877Z,28.37
2017-10-08T18:08:43.164Z,52.87
2017-10-08T18:11:10.693Z,22.13
2017-10-08T18:13:38.245Z,638.50
2017-10-08T18:16:05.788Z,235.60
2017-10-08T18:18:33.313Z,20.03
2017-10-08T18:21:00.845Z,20.03
2017-10-08T18:23:29.141Z,11.80
2017-10-08T18:25:56.676Z,8.40
2017-10-08T18:28:24.992Z,7.23
2017-10-08T18:30:52.533Z,12.60
2017-10-08T18:33:20.842Z,10.37
2017-10-08T18:35:48.385Z,55.77
2017-10-08T18:38:15.917Z,15.80
2017-10-08T18:40:44.214Z,6.57
2017-10-08T18:43:11.754Z,13.93
2017-10-08T18:45:40.056Z,13.90
2017-10-08T18:48:07.604Z,28.77
2017-10-08T18:50:35.923Z,11.60
2017-10-08T18:53:03.454Z,15.70
2017-10-08T18:55:30.988Z,22.27
2017-10-08T18:57:59.288Z,11.37
2017-10-08T19:00:27.589Z,10.13
2017-10-08T19:02:55.121Z,16.13
2017-10-08T19:05:23.442Z,22.60
2017-10-08T19:07:50.993Z,10.40
2017-10-08T19:10:18.536Z,13.07
2017-10-08T19:12:46.082Z,13.93
2017-10-08T19:15:14.386Z,24.20
2017-10-08T19:17:41.923Z,9.80
2017-10-08T19:20:09.454Z,10.00
2017-10-08T19:22:36.997Z,106.73
2017-10-08T19:25:04.543Z,14.10
2017-10-08T19:27:32.076Z,16.17
2017-10-08T19:29:59.624Z,95.73
2017-10-08T19:32:27.161Z,11.60
2017-10-08T19:34:55.488Z,237.57
2017-10-08T19:37:23.021Z,40.77
2017-10-08T19:39:50.561Z,13.30
2017-10-08T19:42:18.084Z,20.67
2017-10-08T19:44:45.617Z,27.20
2017-10-08T19:47:13.173Z,14.50
2017-10-08T19:49:43.072Z,12.03
2017-10-08T19:52:11.637Z,19.63
2017-10-08T19:54:39.609Z,19.37
2017-10-08T19:57:08.606Z,13.17
2017-10-08T19:59:38.351Z,40.87
2017-10-08T20:02:06.557Z,11.83
2017-10-08T20:04:35.658Z,42.33
2017-10-08T20:07:03.813Z,22.83
2017-10-08T20:09:32.105Z,23.77
2017-10-08T20:12:00.310Z,11.00
2017-10-08T20:14:27.845Z,19.70
2017-10-08T20:16:56.932Z,24.53
2017-10-08T20:19:24.793Z,9.80
2017-10-08T20:21:53.545Z,18.43
2017-10-08T20:24:23.065Z,13.90
2017-10-08T20:26:53.174Z,18.53
2017-10-08T20:29:25.759Z,17.73
2017-10-08T20:31:55.614Z,25.87
2017-10-08T20:34:24.154Z,18.93
2017-10-08T20:36:52.326Z,14.63
2017-10-08T20:39:21.915Z,23.40
2017-10-08T20:41:50.142Z,13.73
2017-10-08T20:44:19.463Z,13.83
2017-10-08T20:46:47.927Z,15.37
2017-10-08T20:49:15.472Z,130.23
2017-10-08T20:51:43.014Z,13.97
2017-10-08T20:54:11.800Z,12.30
2017-10-08T20:56:41.646Z,10.97
2017-10-08T20:59:10.590Z,13.10
2017-10-08T21:01:39.914Z,16.03
2017-10-08T21:04:08.935Z,16.00
2017-10-08T21:06:37.451Z,25.37
2017-10-08T21:09:05.395Z,15.50
2017-10-08T21:11:34.615Z,14.63
2017-10-08T21:14:02.155Z,15.50
2017-10-08T21:16:29.688Z,17.33
2017-10-08T21:18:57.358Z,32.57
2017-10-08T21:21:24.887Z,16.33
2017-10-08T21:23:52.416Z,27.00
2017-10-08T21:26:19.955Z,23.90
2017-10-08T21:28:47.490Z,13.23
2017-10-08T21:31:15.020Z,21.30
2017-10-08T21:33:43.317Z,12.40
2017-10-08T21:36:11.615Z,8.30
2017-10-08T21:38:39.140Z,20.67
2017-10-08T21:41:07.452Z,19.63
2017-10-08T21:43:34.985Z,20.47
2017-10-08T21:46:02.520Z,10.73
2017-10-08T21:48:30.050Z,15.97
2017-10-08T21:50:57.589Z,13.77
2017-10-08T21:53:25.129Z,24.17
2017-10-08T21:55:53.447Z,13.50
2017-10-08T21:58:20.982Z,12.80
2017-10-08T22:00:48.521Z,127.63
2017-10-08T22:03:16.834Z,22.93
2017-10-08T22:05:44.369Z,12.70
2017-10-08T22:08:12.669Z,12.80
2017-10-08T22:10:40.204Z,14.00
2017-10-08T22:13:08.487Z,10.37
2017-10-08T22:15:36.785Z,11.10
2017-10-08T22:18:04.329Z,16.60
2017-10-08T22:20:32.628Z,11.50
2017-10-08T22:23:00.170Z,13.60
2017-10-08T22:25:28.473Z,17.13
2017-10-08T22:27:56.018Z,12.40
2017-10-08T22:30:23.560Z,8.33
2017-10-08T22:32:51.866Z,10.90
2017-10-08T22:35:19.585Z,15.50
2017-10-08T22:37:47.130Z,15.40
2017-10-08T22:40:14.694Z,10.53
2017-10-08T22:42:42.221Z,6.17
2017-10-08T22:45:09.756Z,10.17
2017-10-08T22:47:37.289Z,10.93
2017-10-08T22:50:04.836Z,11.97
2017-10-08T22:52:32.385Z,10.80
2017-10-08T22:54:59.921Z,8.90
2017-10-08T22:57:27.444Z,10.50
2017-10-08T22:59:55.744Z,8.97
2017-10-08T23:02:23.285Z,15.23
2017-10-08T23:04:51.576Z,9.83
2017-10-08T23:07:19.112Z,12.70
2017-10-08T23:09:47.417Z,7.53
2017-10-08T23:12:14.945Z,9.13
2017-10-08T23:14:42.475Z,24.77
2017-10-08T23:17:10.005Z,8.63
2017-10-08T23:19:37.563Z,7.93
2017-10-08T23:22:05.087Z,15.20
2017-10-08T23:24:32.637Z,11.23
2017-10-08T23:27:00.179Z,10.20
2017-10-08T23:29:27.723Z,11.20
2017-10-08T23:31:55.252Z,9.20
2017-10-08T23:34:22.780Z,9.23
2017-10-08T23:36:50.335Z,10.83
2017-10-08T23:39:17.869Z,26.27
2017-10-08T23:41:49.368Z,11.47
2017-10-08T23:44:17.670Z,10.40
2017-10-08T23:46:45.201Z,8.30
2017-10-08T23:49:13.497Z,5.37
2017-10-08T23:51:41.798Z,13.30
2017-10-08T23:54:09.326Z,7.37
2017-10-08T23:56:37.625Z,8.93
2017-10-08T23:59:05.162Z,11.37
